createdAt,value
2018-07-17T00:00:12.810Z,53.18
2018-07-17T00:02:40.444Z,52.77
2018-07-17T00:05:08.963Z,52.71
2018-07-17T00:07:36.956Z,53.18
2018-07-17T00:10:05.041Z,52.76
2018-07-17T00:12:32.725Z,53.16
2018-07-17T00:15:00.480Z,53.02
2018-07-17T00:17:28.099Z,52.68
2018-07-17T00:19:55.818Z,53.51
2018-07-17T00:22:23.497Z,53.50
2018-07-17T00:24:51.080Z,53.82
2018-07-17T00:27:18.826Z,54.08
2018-07-17T00:29:46.518Z,53.81
2018-07-17T00:32:14.318Z,52.95
2018-07-17T00:34:41.998Z,52.31
2018-07-17T00:37:09.629Z,52.96
2018-07-17T00:39:37.295Z,52.62
2018-07-17T00:42:04.850Z,53.08
2018-07-17T00:44:32.539Z,53.53
2018-07-17T00:47:00.134Z,54.54
2018-07-17T00:49:27.741Z,55.60
2018-07-17T00:51:55.427Z,55.38
2018-07-17T00:54:23.085Z,55.80
2018-07-17T00:56:50.753Z,55.34
2018-07-17T00:59:18.416Z,55.33
2018-07-17T01:01:51.806Z,55.45
2018-07-17T01:04:25.362Z,55.05
2018-07-17T01:06:58.882Z,54.58
2018-07-17T01:09:32.398Z,54.43
2018-07-17T01:12:05.954Z,53.96
2018-07-17T01:14:36.864Z,53.98
2018-07-17T01:17:04.697Z,54.15
2018-07-17T01:19:32.367Z,53.81
2018-07-17T01:22:00.015Z,54.20
2018-07-17T01:24:27.651Z,53.46
2018-07-17T01:26:55.313Z,54.18
2018-07-17T01:29:22.915Z,54.42
2018-07-17T01:31:50.536Z,54.85
2018-07-17T01:34:18.121Z,55.08
2018-07-17T01:36:45.737Z,54.92
2018-07-17T01:39:13.378Z,55.81
2018-07-17T01:41:40.986Z,56.17
2018-07-17T01:44:08.602Z,56.38
2018-07-17T01:46:36.369Z,56.84
2018-07-17T01:49:04.072Z,56.47
2018-07-17T01:51:31.696Z,56.33
2018-07-17T01:53:59.351Z,57.03
2018-07-17T01:56:27.006Z,57.06
2018-07-17T01:58:54.568Z,56.92
2018-07-17T02:01:22.138Z,56.67
2018-07-17T02:03:49.737Z,57.16
2018-07-17T02:06:17.377Z,57.31
2018-07-17T02:08:44.981Z,57.32
2018-07-17T02:11:12.621Z,57.48
2018-07-17T02:13:40.245Z,57.09
2018-07-17T02:16:07.846Z,57.41
2018-07-17T02:18:35.493Z,58.45
2018-07-17T02:21:03.099Z,58.07
2018-07-17T02:23:30.797Z,58.17
2018-07-17T02:25:58.466Z,58.57
2018-07-17T02:28:26.090Z,58.63
2018-07-17T02:30:53.747Z,59.00
2018-07-17T02:33:21.446Z,58.55
2018-07-17T02:35:49.124Z,59.34
2018-07-17T02:38:16.750Z,59.50
2018-07-17T02:40:44.411Z,59.52
2018-07-17T02:43:12.048Z,59.63
2018-07-17T02:45:39.696Z,59.91
2018-07-17T02:48:07.338Z,59.50
2018-07-17T02:50:35.077Z,59.76
2018-07-17T02:53:02.745Z,59.33
2018-07-17T02:55:30.348Z,59.92
2018-07-17T02:57:57.939Z,59.58
2018-07-17T03:00:25.543Z,60.17
2018-07-17T03:02:53.217Z,59.84
2018-07-17T03:05:20.869Z,60.39
2018-07-17T03:07:48.503Z,60.98
2018-07-17T03:10:22.930Z,60.39
2018-07-17T03:12:50.576Z,60.22
2018-07-17T03:15:18.180Z,59.78
2018-07-17T03:17:45.793Z,59.70
2018-07-17T03:20:13.433Z,59.80
2018-07-17T03:22:41.215Z,58.96
2018-07-17T03:25:09.009Z,59.05
2018-07-17T03:27:36.669Z,59.09
2018-07-17T03:30:04.934Z,58.63
2018-07-17T03:32:32.553Z,58.12
2018-07-17T03:35:00.213Z,58.08
2018-07-17T03:37:27.849Z,58.15
2018-07-17T03:39:55.515Z,58.04
2018-07-17T03:42:23.119Z,57.56
2018-07-17T03:44:50.799Z,57.69
2018-07-17T03:47:18.459Z,57.25
2018-07-17T03:49:46.103Z,57.45
2018-07-17T03:52:13.701Z,57.96
2018-07-17T03:54:41.513Z,57.94
2018-07-17T03:57:09.145Z,57.88
2018-07-17T03:59:36.766Z,56.54
2018-07-17T04:02:04.433Z,57.28
2018-07-17T04:04:32.133Z,57.88
2018-07-17T04:06:59.794Z,57.93
2018-07-17T04:09:27.402Z,57.87
2018-07-17T04:11:56.204Z,58.09
2018-07-17T04:14:23.844Z,57.74
2018-07-17T04:16:54.596Z,57.14
2018-07-17T04:19:23.082Z,56.22
2018-07-17T04:21:51.285Z,56.27
2018-07-17T04:24:19.733Z,55.37
2018-07-17T04:26:47.384Z,55.93
2018-07-17T04:29:15.060Z,54.79
2018-07-17T04:31:42.696Z,54.55
2018-07-17T04:34:10.338Z,54.81
2018-07-17T04:36:38.010Z,54.71
2018-07-17T04:39:08.671Z,54.12
2018-07-17T04:41:36.639Z,53.98
2018-07-17T04:44:04.321Z,53.43
2018-07-17T04:46:32.033Z,52.84
2018-07-17T04:48:59.613Z,53.69
2018-07-17T04:51:27.319Z,52.92
2018-07-17T04:53:54.988Z,51.18
2018-07-17T04:56:22.628Z,51.36
2018-07-17T04:58:50.196Z,50.42
2018-07-17T05:01:17.813Z,49.91
2018-07-17T05:03:45.505Z,49.80
2018-07-17T05:06:13.181Z,49.18
2018-07-17T05:08:40.811Z,48.53
2018-07-17T05:11:08.447Z,47.67
2018-07-17T05:13:36.061Z,48.13
2018-07-17T05:16:03.778Z,47.71
2018-07-17T05:18:31.354Z,47.57
2018-07-17T05:20:58.986Z,47.88
2018-07-17T05:23:26.583Z,47.46
2018-07-17T05:25:54.233Z,47.97
2018-07-17T05:28:21.891Z,47.11
2018-07-17T05:30:49.623Z,46.71
2018-07-17T05:33:17.246Z,46.24
2018-07-17T05:35:44.891Z,46.29
2018-07-17T05:38:12.539Z,45.98
2018-07-17T05:40:40.185Z,46.19
2018-07-17T05:43:07.837Z,45.82
2018-07-17T05:45:35.448Z,45.13
2018-07-17T05:48:03.164Z,44.95
2018-07-17T05:50:30.841Z,45.40
2018-07-17T05:52:58.483Z,45.68
2018-07-17T05:55:26.154Z,45.51
2018-07-17T05:57:53.828Z,44.91
2018-07-17T06:00:21.524Z,44.88
2018-07-17T06:02:49.219Z,44.72
2018-07-17T06:05:16.900Z,43.29
2018-07-17T06:07:44.579Z,42.57
2018-07-17T06:10:12.211Z,42.32
2018-07-17T06:12:40.011Z,41.57
2018-07-17T06:15:07.704Z,41.49
2018-07-17T06:17:35.438Z,42.03
2018-07-17T06:20:03.180Z,41.45
2018-07-17T06:22:30.823Z,41.41
2018-07-17T06:24:58.490Z,41.75
2018-07-17T06:27:26.156Z,41.66
2018-07-17T06:29:54.032Z,42.01
2018-07-17T06:32:21.641Z,45.35
2018-07-17T06:34:49.290Z,45.02
2018-07-17T06:37:17.031Z,44.02
2018-07-17T06:39:45.359Z,44.13
2018-07-17T06:42:12.973Z,43.67
2018-07-17T06:44:40.638Z,44.61
2018-07-17T06:47:08.217Z,43.39
2018-07-17T06:49:35.810Z,42.81
2018-07-17T06:52:03.426Z,43.79
2018-07-17T06:54:31.003Z,44.89
2018-07-17T06:56:58.642Z,45.48
2018-07-17T06:59:26.366Z,44.37
2018-07-17T07:01:54.003Z,44.74
2018-07-17T07:04:21.630Z,46.32
2018-07-17T07:06:49.420Z,45.42
2018-07-17T07:09:17.495Z,46.24
2018-07-17T07:11:45.351Z,45.80
2018-07-17T07:14:13.001Z,45.32
2018-07-17T07:16:40.682Z,43.83
2018-07-17T07:19:08.299Z,44.52
2018-07-17T07:21:35.907Z,42.47
2018-07-17T07:24:03.587Z,42.51
2018-07-17T07:26:31.277Z,42.14
2018-07-17T07:28:58.978Z,40.83
2018-07-17T07:31:26.671Z,42.43
2018-07-17T07:33:54.385Z,41.63
2018-07-17T07:36:22.059Z,42.02
2018-07-17T07:38:49.687Z,42.28
2018-07-17T07:41:17.296Z,41.52
2018-07-17T07:43:45.011Z,41.93
2018-07-17T07:46:12.666Z,40.95
2018-07-17T07:48:40.281Z,40.07
2018-07-17T07:51:08.017Z,40.46
2018-07-17T07:53:35.695Z,40.48
2018-07-17T07:56:03.361Z,39.57
2018-07-17T07:58:31.005Z,39.58
2018-07-17T08:00:58.650Z,38.39
2018-07-17T08:03:26.264Z,39.56
2018-07-17T08:05:53.958Z,39.17
2018-07-17T08:08:21.692Z,38.76
2018-07-17T08:10:49.348Z,40.93
2018-07-17T08:13:17.061Z,40.13
2018-07-17T08:15:44.701Z,39.04
2018-07-17T08:18:12.318Z,39.48
2018-07-17T08:20:40.064Z,39.15
2018-07-17T08:23:07.931Z,39.05
2018-07-17T08:25:35.630Z,38.46
2018-07-17T08:28:03.445Z,39.26
2018-07-17T08:30:31.139Z,40.05
2018-07-17T08:32:58.818Z,40.33
2018-07-17T08:35:26.450Z,38.90
2018-07-17T08:37:54.079Z,40.36
2018-07-17T08:40:21.745Z,39.94
2018-07-17T08:42:49.406Z,38.53
2018-07-17T08:45:17.062Z,39.73
2018-07-17T08:47:44.694Z,37.99
2018-07-17T08:50:12.350Z,39.18
2018-07-17T08:52:40.003Z,39.77
2018-07-17T08:55:07.745Z,38.97
2018-07-17T08:57:35.586Z,39.24
2018-07-17T09:00:03.850Z,38.75
2018-07-17T09:02:31.510Z,37.49
2018-07-17T09:04:59.179Z,38.25
2018-07-17T09:07:28.925Z,37.74
2018-07-17T09:09:56.554Z,38.07
2018-07-17T09:12:24.280Z,36.08
2018-07-17T09:14:51.968Z,35.38
2018-07-17T09:17:19.620Z,36.00
2018-07-17T09:19:47.282Z,35.08
2018-07-17T09:22:14.924Z,36.07
2018-07-17T09:24:42.646Z,35.54
2018-07-17T09:27:10.728Z,34.30
2018-07-17T09:29:38.482Z,35.61
2018-07-17T09:32:06.125Z,34.08
2018-07-17T09:34:33.749Z,34.27
2018-07-17T09:37:01.594Z,35.21
2018-07-17T09:39:29.367Z,34.43
2018-07-17T09:41:57.125Z,34.71
2018-07-17T09:44:24.962Z,33.14
2018-07-17T09:46:52.594Z,32.71
2018-07-17T09:49:20.613Z,31.85
2018-07-17T09:51:48.299Z,32.08
2018-07-17T09:54:16.021Z,33.39
2018-07-17T09:56:43.644Z,32.98
2018-07-17T09:59:11.359Z,33.13
2018-07-17T10:01:44.787Z,32.55
2018-07-17T10:04:12.530Z,31.38
2018-07-17T10:06:40.234Z,31.41
2018-07-17T10:09:07.885Z,30.11
2018-07-17T10:11:35.658Z,31.53
2018-07-17T10:14:03.368Z,30.01
2018-07-17T10:16:31.074Z,30.25
2018-07-17T10:18:58.750Z,31.49
2018-07-17T10:21:26.474Z,32.20
2018-07-17T10:23:54.371Z,32.04
2018-07-17T10:26:22.074Z,31.67
2018-07-17T10:28:49.700Z,30.85
2018-07-17T10:31:17.398Z,30.34
2018-07-17T10:33:45.011Z,31.04
2018-07-17T10:36:12.734Z,32.26
2018-07-17T10:38:40.541Z,32.31
2018-07-17T10:41:08.134Z,30.69
2018-07-17T10:43:35.728Z,28.89
2018-07-17T10:46:03.546Z,29.83
2018-07-17T10:48:31.344Z,28.94
2018-07-17T10:50:59.173Z,28.73
2018-07-17T10:53:26.828Z,29.01
2018-07-17T10:55:54.562Z,28.80
2018-07-17T10:58:22.298Z,28.74
2018-07-17T11:00:50.045Z,28.39
2018-07-17T11:03:17.720Z,28.70
2018-07-17T11:05:45.382Z,28.62
2018-07-17T11:08:13.186Z,28.04
2018-07-17T11:10:40.874Z,28.05
2018-07-17T11:13:08.555Z,27.43
2018-07-17T11:15:36.243Z,28.32
2018-07-17T11:18:03.891Z,26.95
2018-07-17T11:20:31.511Z,26.82
2018-07-17T11:22:59.139Z,27.66
2018-07-17T11:25:26.896Z,26.97
2018-07-17T11:27:54.583Z,26.49
2018-07-17T11:30:22.245Z,26.88
2018-07-17T11:32:49.895Z,26.27
2018-07-17T11:35:17.495Z,25.89
2018-07-17T11:37:45.147Z,24.99
2018-07-17T11:40:12.883Z,25.92
2018-07-17T11:42:40.573Z,25.79
2018-07-17T11:45:08.416Z,25.54
2018-07-17T11:47:36.072Z,24.19
2018-07-17T11:50:04.314Z,25.77
2018-07-17T11:52:31.985Z,25.20
2018-07-17T11:54:59.675Z,25.85
2018-07-17T11:57:27.244Z,25.94
2018-07-17T11:59:54.909Z,24.60
2018-07-17T12:02:22.603Z,22.75
2018-07-17T12:04:50.213Z,22.61
2018-07-17T12:07:17.903Z,23.77
2018-07-17T12:09:45.791Z,25.26
2018-07-17T12:12:13.404Z,26.29
2018-07-17T12:14:41.819Z,25.59
2018-07-17T12:17:09.486Z,25.10
2018-07-17T12:19:37.631Z,26.30
2018-07-17T12:22:05.266Z,27.19
2018-07-17T12:24:32.985Z,27.39
2018-07-17T12:27:01.312Z,27.86
2018-07-17T12:29:29.011Z,25.63
2018-07-17T12:31:56.672Z,20.16
2018-07-17T12:34:26.138Z,16.05
2018-07-17T12:36:54.893Z,15.95
2018-07-17T12:39:22.578Z,14.82
2018-07-17T12:41:50.212Z,12.23
2018-07-17T12:44:17.930Z,12.71
2018-07-17T12:46:45.479Z,16.04
2018-07-17T12:49:13.108Z,18.33
2018-07-17T12:51:40.749Z,18.43
2018-07-17T12:54:08.437Z,15.52
2018-07-17T12:56:36.084Z,12.90
2018-07-17T12:59:03.836Z,11.09
2018-07-17T13:01:31.403Z,11.08
2018-07-17T13:03:59.007Z,10.98
2018-07-17T13:06:26.621Z,11.91
2018-07-17T13:08:54.309Z,12.83
2018-07-17T13:11:21.965Z,14.02
2018-07-17T13:13:49.585Z,15.14
2018-07-17T13:16:17.350Z,14.76
2018-07-17T13:18:45.026Z,13.59
2018-07-17T13:21:12.704Z,14.64
2018-07-17T13:23:40.385Z,14.99
2018-07-17T13:26:08.175Z,13.39
2018-07-17T13:28:35.948Z,13.43
2018-07-17T13:31:03.852Z,12.14
2018-07-17T13:33:31.524Z,12.34
2018-07-17T13:35:59.201Z,12.28
2018-07-17T13:38:26.982Z,13.67
2018-07-17T13:40:54.627Z,14.32
2018-07-17T13:43:22.459Z,13.86
2018-07-17T13:45:50.085Z,12.77
2018-07-17T13:48:18.060Z,17.62
2018-07-17T13:50:45.764Z,17.23
2018-07-17T13:53:13.455Z,15.59
2018-07-17T13:55:41.274Z,17.23
2018-07-17T13:58:08.959Z,14.72
2018-07-17T14:00:36.710Z,14.50
2018-07-17T14:03:04.512Z,15.50
2018-07-17T14:05:32.170Z,14.30
2018-07-17T14:07:59.850Z,15.55
2018-07-17T14:10:27.659Z,17.12
2018-07-17T14:12:55.335Z,17.51
2018-07-17T14:15:23.039Z,20.92
2018-07-17T14:17:50.682Z,21.56
2018-07-17T14:20:18.390Z,20.21
2018-07-17T14:22:46.097Z,15.67
2018-07-17T14:25:13.766Z,14.92
2018-07-17T14:27:43.526Z,15.66
2018-07-17T14:30:11.758Z,15.14
2018-07-17T14:32:39.396Z,15.13
2018-07-17T14:35:07.082Z,13.32
2018-07-17T14:37:34.736Z,11.50
2018-07-17T14:40:02.448Z,12.05
2018-07-17T14:42:30.197Z,11.45
2018-07-17T14:44:57.903Z,13.52
2018-07-17T14:47:25.620Z,14.38
2018-07-17T14:49:53.255Z,14.46
2018-07-17T14:52:21.001Z,13.17
2018-07-17T14:54:48.633Z,12.54
2018-07-17T14:57:16.301Z,10.77
2018-07-17T14:59:43.905Z,9.94
2018-07-17T15:02:11.705Z,9.45
2018-07-17T15:04:39.322Z,9.54
2018-07-17T15:07:06.946Z,8.84
2018-07-17T15:09:34.621Z,9.27
2018-07-17T15:12:02.341Z,9.90
2018-07-17T15:14:30.110Z,11.01
2018-07-17T15:16:57.810Z,12.30
2018-07-17T15:19:25.508Z,10.65
2018-07-17T15:21:53.638Z,9.84
2018-07-17T15:24:21.261Z,11.75
2018-07-17T15:26:48.902Z,12.39
2018-07-17T15:29:16.556Z,12.56
2018-07-17T15:31:44.155Z,15.75
2018-07-17T15:34:11.758Z,14.84
2018-07-17T15:36:39.458Z,14.99
2018-07-17T15:39:08.999Z,17.18
2018-07-17T15:41:36.651Z,18.64
2018-07-17T15:44:04.365Z,16.75
2018-07-17T15:46:32.100Z,15.70
2018-07-17T15:48:59.717Z,16.37
2018-07-17T15:51:27.416Z,19.17
2018-07-17T15:53:55.305Z,18.99
2018-07-17T15:56:22.952Z,17.13
2018-07-17T15:58:51.289Z,16.53
2018-07-17T16:01:19.048Z,14.67
2018-07-17T16:03:46.721Z,14.24
2018-07-17T16:06:14.538Z,13.27
2018-07-17T16:08:42.138Z,14.66
2018-07-17T16:11:09.921Z,14.12
2018-07-17T16:13:37.692Z,14.28
2018-07-17T16:16:05.248Z,14.01
2018-07-17T16:18:32.853Z,12.76
2018-07-17T16:21:00.549Z,14.79
2018-07-17T16:23:28.315Z,13.97
2018-07-17T16:25:56.046Z,13.17
2018-07-17T16:28:23.777Z,11.82
2018-07-17T16:30:51.673Z,12.30
2018-07-17T16:33:19.376Z,12.25
2018-07-17T16:35:47.076Z,15.42
2018-07-17T16:38:14.714Z,16.96
2018-07-17T16:40:42.365Z,15.34
2018-07-17T16:43:10.036Z,16.57
2018-07-17T16:45:37.715Z,15.30
2018-07-17T16:48:05.564Z,16.21
2018-07-17T16:50:33.482Z,13.66
2018-07-17T16:53:01.246Z,14.41
2018-07-17T16:55:28.879Z,13.75
2018-07-17T16:57:56.616Z,16.08
2018-07-17T17:00:24.302Z,15.54
2018-07-17T17:02:51.974Z,14.17
2018-07-17T17:05:19.605Z,14.80
2018-07-17T17:07:47.265Z,15.48
2018-07-17T17:10:14.932Z,17.49
2018-07-17T17:12:42.590Z,15.55
2018-07-17T17:15:10.243Z,15.87
2018-07-17T17:17:39.117Z,15.19
2018-07-17T17:20:06.767Z,15.34
2018-07-17T17:22:34.441Z,16.04
2018-07-17T17:25:02.175Z,16.18
2018-07-17T17:27:29.822Z,17.18
2018-07-17T17:29:57.497Z,17.71
2018-07-17T17:32:25.279Z,16.08
2018-07-17T17:34:52.993Z,16.52
2018-07-17T17:37:20.660Z,17.25
2018-07-17T17:39:48.413Z,17.00
2018-07-17T17:42:16.019Z,17.76
2018-07-17T17:44:43.666Z,17.62
2018-07-17T17:47:11.304Z,16.90
2018-07-17T17:49:39.078Z,16.59
2018-07-17T17:52:07.447Z,16.44
2018-07-17T17:54:35.378Z,15.37
2018-07-17T17:57:03.205Z,17.02
2018-07-17T17:59:30.844Z,16.38
2018-07-17T18:01:58.481Z,17.81
2018-07-17T18:04:26.066Z,17.66
2018-07-17T18:06:53.890Z,19.03
2018-07-17T18:09:21.557Z,20.36
2018-07-17T18:11:49.219Z,20.67
2018-07-17T18:14:16.887Z,20.76
2018-07-17T18:16:44.565Z,20.63
2018-07-17T18:19:12.270Z,20.59
2018-07-17T18:21:40.021Z,21.04
2018-07-17T18:24:07.943Z,22.74
2018-07-17T18:26:35.585Z,23.29
2018-07-17T18:29:03.439Z,24.28
2018-07-17T18:31:31.107Z,24.35
2018-07-17T18:33:58.796Z,25.42
2018-07-17T18:36:26.466Z,25.71
2018-07-17T18:38:54.272Z,25.94
2018-07-17T18:41:21.926Z,26.12
2018-07-17T18:43:49.572Z,26.96
2018-07-17T18:46:17.250Z,26.47
2018-07-17T18:48:47.466Z,28.72
2018-07-17T18:51:15.701Z,29.03
2018-07-17T18:53:43.581Z,30.55
2018-07-17T18:56:11.688Z,30.33
2018-07-17T18:58:39.688Z,31.23
2018-07-17T19:01:07.503Z,31.20
2018-07-17T19:03:35.634Z,32.22
2018-07-17T19:06:03.533Z,31.55
2018-07-17T19:08:31.116Z,33.42
2018-07-17T19:10:58.909Z,32.98
2018-07-17T19:13:26.756Z,33.88
2018-07-17T19:15:55.420Z,33.93
2018-07-17T19:18:23.224Z,34.36
2018-07-17T19:20:51.088Z,35.52
2018-07-17T19:23:18.783Z,35.26
2018-07-17T19:25:46.507Z,34.98
2018-07-17T19:28:14.217Z,35.68
2018-07-17T19:30:42.146Z,36.62
2018-07-17T19:33:09.973Z,37.51
2018-07-17T19:35:37.788Z,37.12
2018-07-17T19:38:05.494Z,36.99
2018-07-17T19:40:33.410Z,37.88
2018-07-17T19:43:01.424Z,38.53
2018-07-17T19:45:29.370Z,38.47
2018-07-17T19:47:57.444Z,38.73
2018-07-17T19:50:25.594Z,39.56
2018-07-17T19:52:53.785Z,39.19
2018-07-17T19:55:21.441Z,39.55
2018-07-17T19:57:49.296Z,39.06
2018-07-17T20:00:17.024Z,39.37
2018-07-17T20:02:45.164Z,40.06
2018-07-17T20:05:12.947Z,40.07
2018-07-17T20:07:40.874Z,40.56
2018-07-17T20:10:08.601Z,40.76
2018-07-17T20:12:36.498Z,41.04
2018-07-17T20:15:04.412Z,40.97
2018-07-17T20:17:32.200Z,41.61
2018-07-17T20:20:00.241Z,41.74
2018-07-17T20:22:27.981Z,41.63
2018-07-17T20:24:55.676Z,41.86
2018-07-17T20:27:23.695Z,43.08
2018-07-17T20:29:51.341Z,43.28
2018-07-17T20:32:19.045Z,43.96
2018-07-17T20:34:46.818Z,44.61
2018-07-17T20:37:14.625Z,43.90
2018-07-17T20:39:42.350Z,42.69
2018-07-17T20:42:10.084Z,44.88
2018-07-17T20:44:37.790Z,44.30
2018-07-17T20:47:05.571Z,45.27
2018-07-17T20:49:33.278Z,45.50
2018-07-17T20:52:00.964Z,45.67
2018-07-17T20:54:28.650Z,45.20
2018-07-17T20:56:56.292Z,44.74
2018-07-17T20:59:24.053Z,44.62
2018-07-17T21:01:51.733Z,44.55
2018-07-17T21:04:19.527Z,45.31
2018-07-17T21:06:47.204Z,45.91
2018-07-17T21:09:14.918Z,45.57
2018-07-17T21:11:42.757Z,45.50
2018-07-17T21:14:10.459Z,46.15
2018-07-17T21:16:38.087Z,46.63
2018-07-17T21:19:05.902Z,46.27
2018-07-17T21:21:33.727Z,46.25
2018-07-17T21:24:01.431Z,47.79
2018-07-17T21:26:29.708Z,47.33
2018-07-17T21:28:57.403Z,47.27
2018-07-17T21:31:25.094Z,47.75
2018-07-17T21:33:52.766Z,47.11
2018-07-17T21:36:20.604Z,47.80
2018-07-17T21:38:48.271Z,47.62
2018-07-17T21:41:16.026Z,47.91
2018-07-17T21:43:43.688Z,48.75
2018-07-17T21:46:11.406Z,48.37
2018-07-17T21:48:39.049Z,48.18
2018-07-17T21:51:06.757Z,49.17
2018-07-17T21:53:34.452Z,50.11
2018-07-17T21:56:02.104Z,50.37
2018-07-17T21:58:29.772Z,50.67
2018-07-17T22:00:57.647Z,51.78
2018-07-17T22:03:25.321Z,51.37
2018-07-17T22:05:52.995Z,51.41
2018-07-17T22:08:20.638Z,51.40
2018-07-17T22:10:48.274Z,51.97
2018-07-17T22:13:15.860Z,51.37
2018-07-17T22:15:43.607Z,51.98
2018-07-17T22:18:11.383Z,52.05
2018-07-17T22:20:39.074Z,52.09
2018-07-17T22:23:06.803Z,52.82
2018-07-17T22:25:34.447Z,52.75
2018-07-17T22:28:02.152Z,53.62
2018-07-17T22:30:29.903Z,54.30
2018-07-17T22:32:57.476Z,54.10
2018-07-17T22:35:25.087Z,54.58
2018-07-17T22:37:52.674Z,54.24
2018-07-17T22:40:20.271Z,54.45
2018-07-17T22:42:47.829Z,54.89
2018-07-17T22:45:15.420Z,54.45
2018-07-17T22:47:43.057Z,55.04
2018-07-17T22:50:10.630Z,54.49
2018-07-17T22:52:38.252Z,54.40
2018-07-17T22:55:06.174Z,55.03
2018-07-17T22:57:33.746Z,54.78
2018-07-17T23:00:01.391Z,54.91
2018-07-17T23:02:29.005Z,55.59
2018-07-17T23:04:56.615Z,55.07
2018-07-17T23:07:24.214Z,55.33
2018-07-17T23:09:51.794Z,55.04
2018-07-17T23:12:19.427Z,55.19
2018-07-17T23:14:47.025Z,55.24
2018-07-17T23:17:16.498Z,54.29
2018-07-17T23:19:50.400Z,53.97
2018-07-17T23:22:26.973Z,54.39
2018-07-17T23:24:55.849Z,54.49
2018-07-17T23:27:23.421Z,53.99
2018-07-17T23:29:51.024Z,54.74
2018-07-17T23:32:18.620Z,54.35
2018-07-17T23:34:46.245Z,54.89
2018-07-17T23:37:13.848Z,54.60
2018-07-17T23:39:41.446Z,55.54
2018-07-17T23:42:08.999Z,55.78
2018-07-17T23:44:36.602Z,55.46
2018-07-17T23:47:04.605Z,55.24
2018-07-17T23:49:38.064Z,54.72
2018-07-17T23:52:06.303Z,54.94
2018-07-17T23:54:33.899Z,55.27
2018-07-17T23:57:01.621Z,55.54
2018-07-17T23:59:29.341Z,55.28
